Time;durP1;ratioP1;P1;durP2;ratioP2;P2;SDS_P1;SDS_P2;PMS_P1;PMS_P2;Temp;Humidity;BMP_temperature;BMP_pressure;BME280_temperature;BME280_humidity;BME280_pressure;Samples;Min_cycle;Max_cycle;Signal;HPM_P1;HPM_P2
2023/09/28 00:04:52;;;;;;;7.47;5.88;;;;;;;15.33;93.05;100835.00;12800381;23;20041;-76
2023/09/28 00:09:53;;;;;;;16.30;6.63;;;;;;;15.10;93.30;100808.34;12799712;23;20357;-76
2023/09/28 00:14:53;;;;;;;11.65;6.95;;;;;;;15.44;94.20;100868.50;12799356;23;20017;-76
2023/09/28 00:19:55;;;;;;;9.88;6.63;;;;;;;15.49;95.22;100885.63;12799786;23;20017;-76
2023/09/28 00:24:56;;;;;;;12.48;6.32;;;;;;;15.15;95.38;100831.88;12799887;23;20024;-76
2023/09/28 00:29:57;;;;;;;11.18;7.35;;;;;;;15.07;96.22;100833.63;12799986;23;20028;-76
2023/09/28 00:34:58;;;;;;;9.95;7.13;;;;;;;14.88;96.86;100796.75;12798927;23;20013;-76
2023/09/28 00:39:59;;;;;;;11.52;7.75;;;;;;;15.14;97.58;100843.63;12800241;23;20013;-76
2023/09/28 00:45:00;;;;;;;11.95;7.85;;;;;;;15.46;98.44;100896.72;12773533;23;20021;-76
2023/09/28 00:50:03;;;;;;;11.02;7.70;;;;;;;15.24;99.07;100838.78;12798899;23;20039;-75
2023/09/28 00:55:06;;;;;;;12.10;8.67;;;;;;;15.60;100.00;100902.25;12798674;23;20021;-76
2023/09/28 01:00:18;;;;;;;10.80;6.70;;;;;;;14.33;100.00;100720.47;12798021;23;20013;-75
2023/09/28 01:05:22;;;;;;;7.93;6.97;;;;;;;15.17;100.00;100849.41;12799411;23;20017;-76
2023/09/28 01:10:23;;;;;;;8.75;6.97;;;;;;;14.51;100.00;100753.03;12799403;23;20035;-75
2023/09/28 01:15:24;;;;;;;13.90;7.30;;;;;;;15.14;100.00;100862.34;12798281;23;20028;-75
2023/09/28 01:20:35;;;;;;;9.57;7.22;;;;;;;15.39;100.00;100898.50;12798401;23;20446;-76
2023/09/28 01:25:38;;;;;;;7.47;6.68;;;;;;;15.02;100.00;100840.56;12798052;23;20634;-76
2023/09/28 01:30:39;;;;;;;9.80;6.80;;;;;;;14.96;100.00;100834.13;12798859;23;20499;-75
2023/09/28 01:35:40;;;;;;;9.40;7.28;;;;;;;15.12;100.00;100867.03;12798108;23;20052;-75
2023/09/28 01:40:42;;;;;;;11.93;7.22;;;;;;;15.04;100.00;100866.09;12797842;23;20044;-75
2023/09/28 01:45:44;;;;;;;9.75;7.90;;;;;;;15.33;100.00;100909.94;12798071;23;20385;-75
2023/09/28 01:50:44;;;;;;;11.85;7.95;;;;;;;14.91;100.00;100847.19;12798367;23;20025;-75
2023/09/28 01:55:47;;;;;;;11.82;7.70;;;;;;;15.26;100.00;100907.19;12797966;23;20095;-76
2023/09/28 02:00:48;;;;;;;9.82;8.10;;;;;;;15.49;100.00;100947.22;12771283;23;20104;-76
2023/09/28 02:05:49;;;;;;;10.43;8.65;;;;;;;15.18;100.00;100895.75;12796474;23;20092;-76
2023/09/28 02:10:50;;;;;;;26.23;10.77;;;;;;;15.64;100.00;100955.25;12797284;23;20024;-76
2023/09/28 02:15:51;;;;;;;17.58;11.23;;;;;;;15.55;100.00;100937.63;12797760;23;20056;-77
2023/09/28 02:20:52;;;;;;;14.57;11.45;;;;;;;15.56;100.00;100925.91;12798314;23;20013;-76
2023/09/28 02:25:53;;;;;;;13.45;11.45;;;;;;;15.81;100.00;100958.59;12796681;23;20099;-76
2023/09/28 02:30:54;;;;;;;35.58;12.75;;;;;;;15.88;100.00;100966.72;12797528;23;20055;-76
2023/09/28 02:35:54;;;;;;;25.15;11.82;;;;;;;15.10;100.00;100843.13;12797736;23;20032;-76
2023/09/28 02:40:55;;;;;;;18.00;11.48;;;;;;;15.88;100.00;100970.22;12796901;23;20457;-75
2023/09/28 02:45:57;;;;;;;25.38;11.40;;;;;;;15.30;100.00;100867.50;12796879;23;20017;-75
2023/09/28 02:50:57;;;;;;;34.70;11.27;;;;;;;15.91;100.00;100985.09;12797081;23;20382;-78
2023/09/28 02:55:59;;;;;;;51.45;11.63;;;;;;;15.87;100.00;100976.59;12797318;23;20024;-76
2023/09/28 03:01:01;;;;;;;37.78;11.57;;;;;;;15.70;100.00;100959.06;12801338;23;20343;-76
2023/09/28 03:06:01;;;;;;;37.30;10.00;;;;;;;15.67;100.00;100956.72;12801409;23;20017;-76
2023/09/28 03:11:02;;;;;;;22.48;9.52;;;;;;;15.60;100.00;100945.09;12774549;23;20346;-76
2023/09/28 03:16:04;;;;;;;38.65;9.95;;;;;;;15.00;100.00;100862.16;12800663;23;20021;-76
2023/09/28 03:21:08;;;;;;;26.85;9.38;;;;;;;15.29;100.00;100914.03;12801260;23;20017;-76
2023/09/28 03:26:09;;;;;;;36.97;10.25;;;;;;;15.77;100.00;100985.97;12802277;23;20092;-76
2023/09/28 03:31:11;;;;;;;34.63;10.57;;;;;;;15.50;100.00;100958.78;12798609;23;20465;-77
2023/09/28 03:36:12;;;;;;;23.65;10.85;;;;;;;15.84;100.00;100995.72;12800821;23;20021;-76
2023/09/28 03:41:13;;;;;;;19.65;10.18;;;;;;;15.79;100.00;101008.84;12801743;23;20076;-78
2023/09/28 03:46:20;;;;;;;21.70;10.93;;;;;;;15.88;100.00;101017.63;12800984;23;20017;-78
2023/09/28 03:51:21;;;;;;;25.33;10.30;;;;;;;15.57;100.00;100959.69;12800981;23;20100;-74
2023/09/28 03:56:22;;;;;;;12.80;10.63;;;;;;;15.79;100.00;100984.72;12799086;23;20063;-79
2023/09/28 04:01:23;;;;;;;21.55;9.60;;;;;;;16.01;100.00;101025.84;12800647;23;20017;-76
2023/09/28 04:06:24;;;;;;;15.85;9.27;;;;;;;16.00;100.00;101018.78;12801036;23;20468;-77
2023/09/28 04:11:24;;;;;;;11.60;9.23;;;;;;;16.13;100.00;101032.38;12799337;23;20023;-73
2023/09/28 04:16:25;;;;;;;17.55;8.77;;;;;;;15.94;100.00;100998.97;12799901;23;20025;-77
2023/09/28 04:21:26;;;;;;;9.55;7.60;;;;;;;16.04;100.00;101005.88;12799349;23;20020;-72
2023/09/28 04:26:27;;;;;;;15.63;7.78;;;;;;;16.20;100.00;101032.44;12800152;23;20017;-79
2023/09/28 04:31:28;;;;;;;11.38;8.23;;;;;;;16.12;100.00;101005.75;12800332;23;20357;-75
2023/09/28 04:36:29;;;;;;;8.75;7.85;;;;;;;16.05;100.00;100975.38;12799002;23;20104;-76
2023/09/28 04:41:31;;;;;;;7.35;6.18;;;;;;;16.19;100.00;100986.06;12798890;23;20044;-77
2023/09/28 04:46:33;;;;;;;8.63;6.60;;;;;;;16.27;100.00;100990.44;12798743;23;20017;-75
2023/09/28 04:51:34;;;;;;;12.75;6.85;;;;;;;16.49;100.00;101025.34;12799219;23;20368;-77
2023/09/28 04:56:34;;;;;;;8.10;6.53;;;;;;;16.73;100.00;101037.56;12799403;23;20024;-76
2023/09/28 05:01:35;;;;;;;10.70;7.32;;;;;;;16.69;100.00;101030.91;12799408;23;20020;-76
2023/09/28 05:06:39;;;;;;;8.00;5.65;;;;;;;16.79;100.00;101045.72;12798660;23;20020;-76
2023/09/28 05:11:40;;;;;;;10.57;5.22;;;;;;;16.94;100.00;101039.44;12799183;23;20441;-77
2023/09/28 05:16:41;;;;;;;8.20;5.20;;;;;;;16.66;100.00;100970.41;12799335;23;20029;-76
2023/09/28 05:21:42;;;;;;;8.95;5.18;;;;;;;17.20;100.00;101053.09;12798924;23;20039;-76
2023/09/28 05:26:43;;;;;;;8.40;6.00;;;;;;;17.20;100.00;101047.72;12772257;23;20024;-77
2023/09/28 05:31:44;;;;;;;7.32;5.65;;;;;;;17.32;100.00;101050.72;12798087;23;20361;-76
2023/09/28 05:36:45;;;;;;;9.45;5.85;;;;;;;17.40;100.00;101058.59;12798169;23;20016;-76
2023/09/28 05:41:46;;;;;;;15.10;6.15;;;;;;;17.28;100.00;101012.66;12772287;23;20441;-76
2023/09/28 05:46:47;;;;;;;7.25;5.38;;;;;;;17.65;100.00;101060.84;12797503;23;20017;-76
2023/09/28 05:51:48;;;;;;;14.35;5.82;;;;;;;17.75;100.00;101061.34;12798358;23;20017;-76
2023/09/28 05:56:48;;;;;;;14.43;5.30;;;;;;;17.70;100.00;101048.47;12797535;23;20021;-79
2023/09/28 06:01:49;;;;;;;14.57;6.28;;;;;;;17.70;100.00;101026.97;12797772;23;20038;-76
2023/09/28 06:06:50;;;;;;;18.02;5.70;;;;;;;17.99;100.00;101043.91;12798107;23;20013;-76
2023/09/28 06:11:52;;;;;;;11.52;5.13;;;;;;;18.28;100.00;101064.31;12798068;23;20043;-76
2023/09/28 06:16:53;;;;;;;6.35;3.90;;;;;;;18.04;100.00;101006.50;12797234;23;20151;-76
2023/09/28 06:21:54;;;;;;;11.18;4.82;;;;;;;18.53;100.00;101069.16;12798292;23;20063;-75
2023/09/28 06:26:55;;;;;;;5.80;4.22;;;;;;;18.43;100.00;100972.69;12798504;23;20392;-75
2023/09/28 06:31:56;;;;;;;10.32;4.45;;;;;;;18.95;100.00;101014.19;12797574;23;20044;-76
2023/09/28 06:36:56;;;;;;;9.80;3.80;;;;;;;19.08;100.00;101040.25;12797738;23;20105;-76
2023/09/28 06:41:59;;;;;;;3.72;2.80;;;;;;;19.93;95.72;101048.47;12797888;23;20013;-75
2023/09/28 06:46:59;;;;;;;4.45;3.05;;;;;;;20.56;92.08;101045.94;12796813;23;20017;-76
2023/09/28 06:52:00;;;;;;;6.60;3.47;;;;;;;20.60;88.95;100995.84;12797268;23;20047;-75
2023/09/28 06:57:03;;;;;;;4.93;2.92;;;;;;;20.63;87.49;100975.69;12797368;23;20021;-75
2023/09/28 07:02:05;;;;;;;7.63;3.10;;;;;;;21.45;85.17;101046.72;12797569;23;20353;-77
2023/09/28 07:07:05;;;;;;;15.45;3.10;;;;;;;21.68;82.57;101050.66;12797833;23;20287;-75
2023/09/28 07:12:06;;;;;;;5.63;3.20;;;;;;;21.85;80.04;101046.31;12797208;23;20068;-76
2023/09/28 07:17:07;;;;;;;5.65;3.03;;;;;;;21.70;77.34;100989.06;12795839;23;20021;-76
2023/09/28 07:22:08;;;;;;;8.90;2.65;;;;;;;21.82;75.67;101017.81;12797223;23;20013;-77
2023/09/28 07:27:08;;;;;;;4.55;2.50;;;;;;;22.08;75.73;101041.03;12797060;23;20048;-76
2023/09/28 07:32:10;;;;;;;11.07;3.28;;;;;;;22.29;73.91;101023.53;12797126;23;20048;-76
2023/09/28 07:37:11;;;;;;;6.55;3.10;;;;;;;22.73;71.89;101034.13;12770195;23;20024;-76
2023/09/28 07:42:13;;;;;;;7.05;2.85;;;;;;;22.67;70.65;100994.44;12797172;23;20040;-76
2023/09/28 07:47:14;;;;;;;7.10;2.60;;;;;;;23.00;68.23;101015.59;12800008;23;20045;-76
2023/09/28 07:52:15;;;;;;;7.75;2.85;;;;;;;23.16;65.52;101009.50;12799893;23;20059;-76
2023/09/28 07:57:17;;;;;;;3.45;2.25;;;;;;;23.01;64.13;100938.69;12800533;23;20024;-76
2023/09/28 08:02:18;;;;;;;3.78;2.30;;;;;;;23.73;62.38;101003.47;12799728;23;20020;-76
2023/09/28 08:07:19;;;;;;;4.28;2.45;;;;;;;23.58;61.43;100965.97;12801156;23;20415;-77
2023/09/28 08:12:20;;;;;;;6.93;2.25;;;;;;;24.03;60.00;100997.84;12801287;23;20020;-77
2023/09/28 08:17:21;;;;;;;7.15;2.58;;;;;;;23.88;58.30;100927.00;12800171;23;20027;-76
2023/09/28 08:22:22;;;;;;;12.57;2.58;;;;;;;24.41;55.93;100982.81;12799876;23;20331;-76
2023/09/28 08:27:25;;;;;;;15.05;2.88;;;;;;;24.45;55.58;100972.31;12800138;23;20108;-77
2023/09/28 08:32:26;;;;;;;5.35;2.38;;;;;;;24.30;53.20;100916.63;12799506;23;20017;-76
2023/09/28 08:37:28;;;;;;;5.45;2.20;;;;;;;24.70;50.95;100939.31;12799081;23;20021;-77
2023/09/28 08:42:31;;;;;;;9.27;2.87;;;;;;;25.19;50.39;100962.09;12799185;23;20048;-77
2023/09/28 08:47:35;;;;;;;8.10;2.33;;;;;;;25.35;48.53;100946.00;12799660;23;20017;-76
2023/09/28 08:52:36;;;;;;;6.57;2.10;;;;;;;25.48;46.68;100938.28;12799759;23;20020;-77
2023/09/28 08:57:39;;;;;;;5.13;1.98;;;;;;;25.55;45.71;100896.47;12772645;23;20048;-77
2023/09/28 09:02:43;;;;;;;8.52;1.80;;;;;;;26.17;42.67;100950.50;12798724;23;20013;-77
2023/09/28 09:07:44;;;;;;;7.25;2.17;;;;;;;26.31;42.42;100929.97;12799340;23;20071;-77
2023/09/28 09:12:44;;;;;;;17.45;2.03;;;;;;;26.51;41.40;100928.53;12799885;23;20061;-77
2023/09/28 09:17:45;;;;;;;5.70;1.95;;;;;;;26.68;39.96;100937.38;12798479;23;20027;-76
2023/09/28 09:22:46;;;;;;;14.93;2.05;;;;;;;26.67;39.74;100921.28;12798022;23;20071;-76
2023/09/28 09:27:48;;;;;;;12.70;2.20;;;;;;;26.60;40.65;100869.75;12798873;23;20055;-76
2023/09/28 09:32:49;;;;;;;10.55;2.08;;;;;;;26.98;40.08;100911.41;12798751;23;20389;-76
2023/09/28 09:37:55;;;;;;;8.45;1.77;;;;;;;26.78;36.75;100865.78;12798453;23;20091;-77
2023/09/28 09:43:05;;;;;;;7.90;1.83;;;;;;;27.09;35.70;100907.66;12799014;23;20063;-76
2023/09/28 09:48:06;;;;;;;6.03;1.75;;;;;;;27.23;36.87;100924.41;12798332;23;20013;-77
2023/09/28 09:53:09;;;;;;;10.05;1.83;;;;;;;27.28;37.21;100919.81;12798357;23;20066;-76
2023/09/28 09:58:14;;;;;;;8.03;1.90;;;;;;;27.23;36.39;100880.78;12797639;23;20140;-75
2023/09/28 10:03:17;;;;;;;4.90;1.80;;;;;;;27.45;36.45;100899.69;12798290;23;20345;-76
2023/09/28 10:08:19;;;;;;;9.70;1.88;;;;;;;27.29;36.85;100836.88;12798161;23;20023;-77
2023/09/28 10:13:20;;;;;;;8.15;2.00;;;;;;;27.58;37.43;100863.69;12797456;23;20087;-76
2023/09/28 10:18:21;;;;;;;6.13;1.85;;;;;;;27.80;36.38;100863.53;12771698;23;20071;-76
2023/09/28 10:23:25;;;;;;;15.35;1.80;;;;;;;28.06;34.86;100878.03;12797886;23;20110;-76
2023/09/28 10:28:26;;;;;;;7.57;1.60;;;;;;;27.56;34.30;100784.03;12797846;23;20331;-76
2023/09/28 10:33:29;;;;;;;17.15;2.50;;;;;;;27.98;34.36;100837.59;12797663;23;20401;-77
2023/09/28 10:38:29;;;;;;;21.73;1.90;;;;;;;27.91;34.05;100798.81;12797691;23;20017;-76
2023/09/28 10:43:45;;;;;;;18.02;2.28;;;;;;;27.81;31.07;100793.34;12797597;23;20449;-76
2023/09/28 10:48:46;;;;;;;15.45;1.63;;;;;;;27.99;29.80;100840.03;12797559;23;20067;-76
2023/09/28 10:53:47;;;;;;;16.48;1.77;;;;;;;28.19;30.68;100827.50;12797541;23;20020;-77
2023/09/28 10:58:50;;;;;;;5.90;1.30;;;;;;;28.18;29.08;100826.69;12796880;23;20029;-77
2023/09/28 11:03:53;;;;;;;10.00;1.75;;;;;;;28.23;29.46;100823.94;12796903;23;20515;-77
2023/09/28 11:08:57;;;;;;;14.18;1.80;;;;;;;28.45;29.91;100822.88;12797482;23;20017;-76
2023/09/28 11:13:58;;;;;;;15.90;1.58;;;;;;;28.37;29.47;100793.34;12797431;23;20013;-76
2023/09/28 11:18:59;;;;;;;15.18;1.75;;;;;;;28.30;29.35;100807.28;12771875;23;20021;-76
2023/09/28 11:24:04;;;;;;;14.85;2.05;;;;;;;28.07;29.02;100780.53;12775011;23;20017;-76
2023/09/28 11:29:05;;;;;;;11.60;1.55;;;;;;;28.25;29.60;100801.81;12801139;23;20012;-77
2023/09/28 11:34:07;;;;;;;25.48;2.08;;;;;;;28.30;28.69;100800.97;12800439;23;20032;-77
2023/09/28 11:39:12;;;;;;;13.25;1.50;;;;;;;28.19;27.86;100789.25;12800873;23;20021;-77
2023/09/28 11:44:19;;;;;;;7.05;1.48;;;;;;;28.31;28.54;100802.63;12800062;23;20072;-77
2023/09/28 11:49:22;;;;;;;15.30;2.40;;;;;;;28.22;28.81;100794.97;12801243;23;20017;-76
2023/09/28 11:54:24;;;;;;;6.75;1.50;;;;;;;28.16;28.57;100785.16;12800801;23;20045;-77
2023/09/28 11:59:25;;;;;;;15.63;2.00;;;;;;;27.76;28.71;100745.84;12799942;23;20032;-77
2023/09/28 12:04:26;;;;;;;13.43;1.70;;;;;;;27.92;28.81;100768.50;12800576;23;20501;-77
2023/09/28 12:09:30;;;;;;;11.73;2.13;;;;;;;28.10;29.20;100802.66;12799667;23;20013;-77
2023/09/28 12:14:33;;;;;;;10.52;1.92;;;;;;;28.02;28.87;100807.84;12800290;23;20346;-76
2023/09/28 12:19:34;;;;;;;13.43;1.93;;;;;;;27.96;29.28;100801.53;12799447;23;20517;-77
2023/09/28 12:24:35;;;;;;;10.55;1.90;;;;;;;27.86;29.13;100788.72;12800190;23;20028;-77
2023/09/28 12:29:36;;;;;;;15.27;2.42;;;;;;;27.81;29.64;100807.00;12799995;23;20024;-78
2023/09/28 12:34:37;;;;;;;19.85;2.67;;;;;;;27.23;29.58;100733.50;12798405;23;20100;-78
2023/09/28 12:39:38;;;;;;;19.60;2.33;;;;;;;27.16;29.79;100733.72;12799953;23;20042;-77
2023/09/28 12:44:39;;;;;;;13.57;1.95;;;;;;;27.27;29.77;100753.66;12798698;23;20013;-78
2023/09/28 12:49:40;;;;;;;12.50;2.20;;;;;;;27.01;30.29;100737.22;12798416;23;20013;-79
2023/09/28 12:54:41;;;;;;;9.82;1.83;;;;;;;26.86;30.10;100728.97;12798729;23;20017;-79
2023/09/28 12:59:41;;;;;;;17.35;2.60;;;;;;;27.09;30.24;100782.22;12798074;23;20017;-78
2023/09/28 13:04:42;;;;;;;22.17;2.95;;;;;;;27.04;30.77;100784.94;12798553;23;20013;-78
2023/09/28 13:09:43;;;;;;;9.27;1.90;;;;;;;26.96;30.53;100788.19;12798463;23;20020;-80
2023/09/28 13:14:45;;;;;;;13.50;1.92;;;;;;;26.85;30.04;100795.50;12799763;23;20052;-79
2023/09/28 13:19:48;;;;;;;15.18;2.47;;;;;;;26.69;30.67;100785.59;12799172;23;20331;-77
2023/09/28 13:24:49;;;;;;;15.82;2.15;;;;;;;26.60;30.51;100796.19;12771567;23;20139;-79
2023/09/28 13:29:51;;;;;;;15.18;1.95;;;;;;;26.48;30.80;100784.63;12798105;23;20025;-76
2023/09/28 13:34:53;;;;;;;10.43;1.58;;;;;;;26.42;30.14;100800.13;12798396;23;20013;-80
2023/09/28 13:39:53;;;;;;;18.25;1.92;;;;;;;26.24;30.13;100774.13;12798740;23;20013;-79
2023/09/28 13:44:59;;;;;;;19.40;2.28;;;;;;;25.59;30.24;100683.50;12798580;23;20048;-75
2023/09/28 13:50:00;;;;;;;35.55;3.20;;;;;;;26.16;30.59;100802.66;12798236;23;20365;-78
2023/09/28 13:55:01;;;;;;;15.82;2.30;;;;;;;26.01;31.03;100802.53;12797602;23;20021;-79
2023/09/28 14:00:08;;;;;;;22.05;2.63;;;;;;;25.91;30.71;100800.56;12798510;23;20024;-77
2023/09/28 14:05:09;;;;;;;15.82;2.15;;;;;;;25.41;30.83;100739.09;12798439;23;20017;-78
2023/09/28 14:10:10;;;;;;;14.50;2.17;;;;;;;25.66;31.09;100811.16;12798858;23;20024;-76
2023/09/28 14:15:11;;;;;;;25.75;2.65;;;;;;;25.34;31.68;100783.88;12797170;23;20020;-78
2023/09/28 14:20:15;;;;;;;19.55;2.72;;;;;;;25.40;31.27;100812.81;12797629;23;20013;-78
2023/09/28 14:25:17;;;;;;;21.27;2.80;;;;;;;24.96;31.50;100783.72;12797779;23;20025;-76
2023/09/28 14:30:17;;;;;;;35.85;3.58;;;;;;;24.57;31.78;100759.28;12797571;23;20136;-80
2023/09/28 14:35:19;;;;;;;30.30;3.13;;;;;;;24.83;32.01;100824.84;12797636;23;20016;-77
2023/09/28 14:40:19;;;;;;;28.67;3.15;;;;;;;24.49;32.15;100800.44;12797020;23;20017;-78
2023/09/28 14:45:21;;;;;;;23.02;3.20;;;;;;;24.46;32.46;100830.81;12797775;23;20017;-78
2023/09/28 14:50:22;;;;;;;32.05;3.13;;;;;;;24.04;32.59;100790.50;12797429;23;20016;-80
2023/09/28 14:55:23;;;;;;;36.03;4.43;;;;;;;24.13;33.01;100824.31;12799504;23;20051;-80
2023/09/28 15:00:23;;;;;;;47.08;5.07;;;;;;;23.98;33.12;100839.50;12798031;23;20021;-77
2023/09/28 15:05:25;;;;;;;36.72;4.88;;;;;;;23.61;33.61;100816.31;12802141;23;20021;-80
2023/09/28 15:10:26;;;;;;;46.17;4.47;;;;;;;23.17;34.21;100777.22;12798789;23;20020;-75
2023/09/28 15:15:27;;;;;;;23.40;4.15;;;;;;;23.10;34.02;100798.25;12801256;23;20349;-76
2023/09/28 15:20:28;;;;;;;46.33;4.97;;;;;;;23.22;34.38;100845.94;12800634;23;20017;-75
2023/09/28 15:25:29;;;;;;;35.20;4.82;;;;;;;22.97;34.81;100827.25;12801207;23;20055;-76
2023/09/28 15:30:30;;;;;;;34.75;5.25;;;;;;;22.99;35.62;100873.88;12801356;23;20468;-76
2023/09/28 15:35:32;;;;;;;44.03;5.32;;;;;;;22.39;36.00;100800.19;12774263;23;20075;-76
2023/09/28 15:40:36;;;;;;;34.65;4.45;;;;;;;22.75;36.48;100883.88;12800969;23;20071;-76
2023/09/28 15:45:36;;;;;;;36.83;5.07;;;;;;;22.10;37.15;100808.09;12800180;23;20088;-83
2023/09/28 15:50:37;;;;;;;41.28;5.45;;;;;;;22.29;38.48;100871.94;12800183;23;20017;-72
2023/09/28 15:55:38;;;;;;;34.15;4.65;;;;;;;22.36;39.30;100892.69;12800290;23;20040;-78
2023/09/28 16:00:39;;;;;;;40.20;5.18;;;;;;;21.88;40.48;100835.69;12800585;23;20438;-74
2023/09/28 16:05:40;;;;;;;31.02;4.03;;;;;;;21.72;41.34;100814.72;12799200;23;20334;-75
2023/09/28 16:10:41;;;;;;;36.65;4.50;;;;;;;22.08;42.41;100896.81;12800245;23;20041;-72
2023/09/28 16:15:42;;;;;;;29.98;3.90;;;;;;;21.71;43.57;100869.84;12798690;23;20020;-74
2023/09/28 16:20:43;;;;;;;23.67;4.28;;;;;;;21.43;44.93;100865.03;12800134;23;20017;-73
2023/09/28 16:25:44;;;;;;;23.42;3.42;;;;;;;20.94;46.14;100797.41;12799179;23;20021;-73
2023/09/28 16:30:45;;;;;;;17.10;3.63;;;;;;;21.23;47.37;100859.81;12797088;23;20024;-72
2023/09/28 16:35:46;;;;;;;15.32;2.90;;;;;;;21.37;48.12;100904.59;12792949;23;20020;-77
2023/09/28 16:40:47;;;;;;;15.68;3.15;;;;;;;21.34;48.87;100921.22;12768521;23;20048;-77
2023/09/28 16:45:48;;;;;;;27.33;3.92;;;;;;;21.18;49.40;100906.44;12794495;23;20022;-78
2023/09/28 16:50:49;;;;;;;16.73;3.33;;;;;;;20.84;49.95;100875.41;12798709;23;20429;-75
2023/09/28 16:55:49;;;;;;;11.70;3.20;;;;;;;20.35;50.44;100803.38;12799208;23;20059;-75
2023/09/28 17:00:50;;;;;;;16.50;3.03;;;;;;;20.54;50.88;100853.69;12794929;23;20095;-78
2023/09/28 17:05:51;;;;;;;12.95;2.83;;;;;;;20.44;51.60;100867.66;12797706;23;20012;-75
2023/09/28 17:10:54;;;;;;;12.70;3.22;;;;;;;20.68;52.00;100919.19;12797878;23;20017;-77
2023/09/28 17:15:55;;;;;;;12.63;2.67;;;;;;;20.45;52.33;100903.53;12798944;23;20067;-78
2023/09/28 17:20:56;;;;;;;14.68;2.72;;;;;;;20.01;52.93;100852.22;12796768;23;20036;-78
2023/09/28 17:25:57;;;;;;;12.15;2.97;;;;;;;19.87;53.54;100853.31;12798903;23;20044;-78
2023/09/28 17:30:58;;;;;;;10.95;2.67;;;;;;;20.22;53.99;100917.59;12767837;23;20021;-72
2023/09/28 17:36:00;;;;;;;20.75;2.97;;;;;;;19.82;54.63;100875.53;12771736;23;20031;-73
2023/09/28 17:41:01;;;;;;;17.98;2.85;;;;;;;19.44;55.38;100835.06;12797477;23;20101;-72
2023/09/28 17:46:03;;;;;;;11.80;3.10;;;;;;;19.87;55.90;100923.44;12797790;23;20038;-74
2023/09/28 17:51:05;;;;;;;19.02;2.88;;;;;;;19.77;56.16;100921.19;12771906;23;20071;-77
2023/09/28 17:56:06;;;;;;;10.20;3.00;;;;;;;19.65;56.94;100927.44;12798155;23;20021;-74
2023/09/28 18:01:07;;;;;;;8.05;2.88;;;;;;;19.42;57.68;100899.13;12794396;23;20013;-74
2023/09/28 18:06:08;;;;;;;13.70;2.92;;;;;;;19.06;58.43;100862.78;12798833;23;20039;-74
2023/09/28 18:11:10;;;;;;;8.38;3.10;;;;;;;19.09;59.49;100888.44;12796109;23;20017;-74
2023/09/28 18:16:11;;;;;;;7.28;2.85;;;;;;;19.26;60.27;100929.19;12768869;23;20023;-72
2023/09/28 18:21:12;;;;;;;10.65;3.42;;;;;;;18.85;61.54;100879.19;12797813;23;20358;-77
2023/09/28 18:26:13;;;;;;;6.78;3.35;;;;;;;18.86;62.46;100883.50;12795763;23;20025;-77
2023/09/28 18:31:14;;;;;;;6.65;3.05;;;;;;;19.00;63.68;100925.53;12797275;23;20104;-77
2023/09/28 18:36:16;;;;;;;5.00;3.05;;;;;;;18.66;65.11;100881.63;12797721;23;20017;-77
2023/09/28 18:41:17;;;;;;;9.60;3.55;;;;;;;18.78;65.79;100910.63;12793842;23;20028;-78
2023/09/28 18:46:18;;;;;;;8.43;3.58;;;;;;;18.08;67.08;100814.19;12794700;23;20103;-77
2023/09/28 18:51:21;;;;;;;7.05;3.40;;;;;;;18.44;68.25;100883.72;12769116;23;20034;-72
2023/09/28 18:56:22;;;;;;;9.43;3.50;;;;;;;18.05;67.98;100828.03;12769504;23;20076;-71
2023/09/28 19:01:23;;;;;;;8.38;3.58;;;;;;;18.30;68.73;100891.97;12797540;23;20099;-76
2023/09/28 19:06:23;;;;;;;8.07;3.50;;;;;;;18.31;69.34;100915.13;12798133;23;20496;-74
2023/09/28 19:11:24;;;;;;;9.25;3.80;;;;;;;18.23;70.37;100918.88;12797571;23;20458;-75
2023/09/28 19:16:25;;;;;;;11.38;4.28;;;;;;;18.13;71.71;100919.25;12797612;23;20460;-75
2023/09/28 19:21:26;;;;;;;14.20;4.90;;;;;;;17.95;72.93;100900.19;12793354;23;20013;-81
2023/09/28 19:26:30;;;;;;;8.70;4.28;;;;;;;18.00;74.13;100911.97;12795277;23;20465;-74
2023/09/28 19:31:31;;;;;;;6.82;4.60;;;;;;;17.79;75.36;100883.38;12795516;23;20017;-75
2023/09/28 19:36:32;;;;;;;8.45;4.40;;;;;;;17.55;75.74;100838.22;12796658;23;20162;-73
2023/09/28 19:41:33;;;;;;;13.38;4.80;;;;;;;17.69;76.43;100877.53;12796718;23;20051;-79
2023/09/28 19:46:33;;;;;;;7.60;4.43;;;;;;;17.33;77.01;100827.63;12772390;23;20091;-79
2023/09/28 19:51:34;;;;;;;6.88;4.70;;;;;;;16.96;77.35;100772.53;12774615;23;20465;-78
2023/09/28 19:56:35;;;;;;;15.13;5.10;;;;;;;17.20;77.38;100822.22;12800673;23;20017;-79
2023/09/28 20:01:36;;;;;;;10.18;4.85;;;;;;;17.08;77.63;100813.03;12800630;23;20068;-79
2023/09/28 20:06:36;;;;;;;14.48;4.60;;;;;;;17.17;78.04;100835.19;12799508;23;20017;-79
2023/09/28 20:11:40;;;;;;;13.00;5.00;;;;;;;17.07;78.10;100832.88;12798022;23;20020;-79
2023/09/28 20:16:41;;;;;;;12.50;5.07;;;;;;;17.37;78.55;100884.44;12799701;23;20028;-79
2023/09/28 20:21:41;;;;;;;6.88;4.68;;;;;;;17.11;78.97;100859.13;12774042;23;20020;-78
2023/09/28 20:26:42;;;;;;;11.88;4.70;;;;;;;16.91;79.67;100828.66;12773647;23;20346;-78
2023/09/28 20:31:44;;;;;;;12.32;4.55;;;;;;;16.81;80.08;100825.47;12799949;23;20096;-78
2023/09/28 20:36:45;;;;;;;9.63;5.13;;;;;;;16.93;80.44;100866.00;12798896;23;20025;-79
2023/09/28 20:41:46;;;;;;;9.15;4.85;;;;;;;16.06;80.70;100725.09;12773423;23;20507;-78
2023/09/28 20:46:47;;;;;;;7.65;5.28;;;;;;;16.14;80.84;100757.97;12798739;23;20020;-79
2023/09/28 20:51:48;;;;;;;11.77;5.07;;;;;;;16.75;81.70;100866.47;12798600;23;20020;-78
2023/09/28 20:56:49;;;;;;;9.80;5.00;;;;;;;16.53;81.87;100820.13;12798799;23;20024;-79
2023/09/28 21:01:50;;;;;;;12.95;5.10;;;;;;;16.31;82.27;100803.25;12799088;23;20052;-78
2023/09/28 21:06:52;;;;;;;12.55;5.07;;;;;;;16.10;82.42;100771.94;12798658;23;20013;-79
2023/09/28 21:11:54;;;;;;;8.23;5.10;;;;;;;16.11;82.85;100765.56;12799369;23;20369;-78
2023/09/28 21:16:54;;;;;;;9.57;5.03;;;;;;;16.12;83.34;100769.88;12799116;23;20025;-78
2023/09/28 21:21:55;;;;;;;12.85;4.78;;;;;;;16.33;84.03;100815.44;12799273;23;20458;-80
2023/09/28 21:26:56;;;;;;;8.52;4.78;;;;;;;16.53;84.44;100855.81;12798998;23;20040;-78
2023/09/28 21:31:57;;;;;;;11.82;5.38;;;;;;;16.55;84.77;100864.50;12799047;23;20056;-80
2023/09/28 21:36:58;;;;;;;11.57;5.25;;;;;;;15.86;84.97;100754.44;12798480;23;20400;-78
2023/09/28 21:41:59;;;;;;;7.65;4.95;;;;;;;16.04;85.42;100796.84;12797756;23;20017;-80
2023/09/28 21:46:59;;;;;;;8.80;5.15;;;;;;;16.43;85.45;100866.06;12799190;23;20047;-79
2023/09/28 21:52:00;;;;;;;8.98;4.75;;;;;;;16.04;85.62;100804.88;12798440;23;20075;-80
2023/09/28 21:57:01;;;;;;;9.68;5.00;;;;;;;15.87;85.65;100778.34;12798414;23;20331;-79
2023/09/28 22:02:03;;;;;;;10.05;4.70;;;;;;;15.88;85.47;100788.03;12798328;23;20442;-78
2023/09/28 22:07:04;;;;;;;10.65;4.47;;;;;;;15.39;85.54;100721.81;12798465;23;20068;-78
2023/09/28 22:12:06;;;;;;;6.22;4.25;;;;;;;15.73;85.61;100766.69;12771162;23;20009;-78
2023/09/28 22:17:07;;;;;;;15.23;4.88;;;;;;;16.00;86.52;100828.53;12797255;23;20024;-80
2023/09/28 22:22:08;;;;;;;6.18;4.15;;;;;;;15.92;87.01;100812.59;12797095;23;20460;-79
2023/09/28 22:27:09;;;;;;;10.88;4.45;;;;;;;15.91;87.97;100817.16;12798117;23;20040;-78
2023/09/28 22:32:10;;;;;;;22.10;4.75;;;;;;;15.93;88.93;100820.44;12771187;23;20017;-78
2023/09/28 22:37:11;;;;;;;12.88;4.75;;;;;;;15.47;89.79;100756.50;12797123;23;20398;-79
2023/09/28 22:42:11;;;;;;;11.05;4.60;;;;;;;15.90;90.60;100815.47;12796890;23;20013;-79
2023/09/28 22:47:12;;;;;;;10.48;4.75;;;;;;;15.75;91.23;100782.56;12797039;23;20017;-80
2023/09/28 22:52:13;;;;;;;7.97;4.80;;;;;;;15.41;92.01;100730.50;12798091;23;20056;-78